Terminal Aerodrome Forecast
Issued by NWS

Home | Current Version | Previous Version | Text Only | Print | Product List | Glossary On
Versions: 1 2 3 4 5 6 7 8 9 10 11 12 13
589
FTUS46 KSEW 301120
TAFCLM
TAF
KCLM 301120Z 3012/0112 24004KT P6SM FEW010 SCT250
     FM301800 04004KT P6SM SCT250
     FM302200 33005KT P6SM BKN200
     FM010200 28004KT P6SM SCT060 BKN150=

USA.gov is the U.S. government's official web portal to all federal, state and local government web resources and services.